Time;durP1;ratioP1;P1;durP2;ratioP2;P2;SDS_P1;SDS_P2;PMS_P1;PMS_P2;Temp;Humidity;BMP_temperature;BMP_pressure;BME280_temperature;BME280_humidity;BME280_pressure;Samples;Min_cycle;Max_cycle;Signal;HPM_P1;HPM_P2
2021/11/28 00:00:34;;;;;;;28.53;16.77;;;4.10;99.90;;;;;;5094501;28;20461;-69
2021/11/28 00:03:03;;;;;;;29.83;17.73;;;4.00;99.90;;;;;;5094458;28;20543;-69
2021/11/28 00:05:30;;;;;;;25.33;15.93;;;4.00;99.90;;;;;;5094561;28;20473;-68
2021/11/28 00:11:00;;;;;;;22.50;15.70;;;4.00;99.90;;;;;;5069685;28;20767;-69
2021/11/28 00:13:46;;;;;;;26.10;17.20;;;3.90;99.90;;;;;;5094139;28;20463;-68
2021/11/28 00:16:13;;;;;;;27.67;18.30;;;4.00;99.90;;;;;;5094510;28;20889;-69
2021/11/28 00:18:40;;;;;;;26.63;17.93;;;4.00;99.90;;;;;;5094506;28;20517;-69
2021/11/28 00:21:10;;;;;;;26.67;18.47;;;4.10;99.90;;;;;;5094542;28;20454;-69
2021/11/28 00:23:37;;;;;;;25.40;16.60;;;4.00;99.90;;;;;;5094244;28;20511;-69
2021/11/28 00:26:06;;;;;;;29.40;18.60;;;4.00;99.90;;;;;;5094656;28;20538;-69
2021/11/28 00:28:33;;;;;;;25.70;16.80;;;3.90;99.90;;;;;;5094216;28;20492;-68
2021/11/28 00:31:00;;;;;;;26.87;15.53;;;3.80;99.90;;;;;;5094434;28;20461;-68
2021/11/28 00:33:27;;;;;;;25.47;16.23;;;3.90;99.90;;;;;;5094284;28;20546;-67
2021/11/28 00:35:54;;;;;;;24.97;16.90;;;3.90;99.90;;;;;;5094193;28;20901;-68
2021/11/28 00:38:21;;;;;;;23.03;17.33;;;3.90;99.90;;;;;;5094080;28;20468;-68
2021/11/28 00:40:48;;;;;;;26.63;17.97;;;3.90;99.90;;;;;;5094141;28;20491;-69
2021/11/28 00:43:18;;;;;;;25.67;17.00;;;3.90;99.90;;;;;;5094384;28;20951;-68
2021/11/28 00:45:45;;;;;;;24.53;17.20;;;3.90;99.90;;;;;;5094430;28;20485;-68
2021/11/28 00:48:12;;;;;;;21.70;16.60;;;3.90;99.90;;;;;;5095605;28;20461;-68
2021/11/28 00:50:45;;;;;;;22.37;17.10;;;3.90;99.90;;;;;;5098304;28;20458;-68
2021/11/28 00:53:13;;;;;;;28.20;17.00;;;3.90;99.90;;;;;;5098364;28;20771;-69
2021/11/28 00:55:40;;;;;;;20.57;14.73;;;3.90;99.90;;;;;;5097790;28;20483;-69
2021/11/28 00:58:07;;;;;;;21.00;15.20;;;3.80;99.90;;;;;;5098472;28;20534;-69
2021/11/28 01:00:36;;;;;;;27.33;15.37;;;3.80;99.90;;;;;;5098107;28;20487;-68
2021/11/28 01:03:03;;;;;;;25.80;15.93;;;3.80;99.90;;;;;;5097482;28;20513;-67
2021/11/28 01:05:30;;;;;;;23.43;16.93;;;3.80;99.90;;;;;;5097925;28;20538;-68
2021/11/28 01:07:57;;;;;;;21.00;14.67;;;3.80;99.90;;;;;;5097687;28;20468;-69
2021/11/28 01:10:24;;;;;;;19.20;14.00;;;3.80;99.90;;;;;;5098044;28;20457;-68
2021/11/28 01:12:52;;;;;;;18.60;13.40;;;3.80;99.90;;;;;;5097510;28;20493;-68
2021/11/28 01:15:19;;;;;;;20.53;14.57;;;3.90;99.90;;;;;;5097562;28;20496;-69
2021/11/28 01:17:47;;;;;;;18.63;12.73;;;3.90;99.90;;;;;;5097796;28;20850;-68
2021/11/28 01:20:14;;;;;;;18.50;12.87;;;3.90;99.90;;;;;;5098149;28;20468;-69
2021/11/28 01:22:41;;;;;;;16.93;12.93;;;3.90;99.90;;;;;;5097949;28;20809;-69
2021/11/28 01:25:12;;;;;;;20.83;12.67;;;4.00;99.90;;;;;;5097448;28;20460;-69
2021/11/28 01:27:40;;;;;;;16.37;11.97;;;4.00;99.90;;;;;;5097857;28;20501;-68
2021/11/28 01:30:09;;;;;;;19.43;12.20;;;4.00;99.90;;;;;;5097737;28;20492;-69
2021/11/28 01:32:37;;;;;;;15.87;11.60;;;4.00;99.90;;;;;;5097188;28;20634;-69
2021/11/28 01:35:07;;;;;;;16.47;10.60;;;4.00;99.90;;;;;;5097695;28;20481;-69
2021/11/28 01:37:35;;;;;;;15.03;10.90;;;4.10;99.90;;;;;;5100462;28;20488;-69
2021/11/28 01:40:04;;;;;;;16.37;10.90;;;4.10;99.90;;;;;;5101520;28;20454;-69
2021/11/28 01:42:41;;;;;;;15.53;10.97;;;4.10;99.90;;;;;;5100229;28;20461;-69
2021/11/28 01:45:17;;;;;;;15.60;11.53;;;4.10;99.90;;;;;;5100256;28;20462;-69
2021/11/28 01:47:44;;;;;;;16.47;11.20;;;4.10;99.90;;;;;;5098037;28;20905;-68
2021/11/28 01:50:13;;;;;;;16.50;11.83;;;4.10;99.90;;;;;;5096713;28;20456;-68
2021/11/28 01:52:40;;;;;;;15.30;11.47;;;4.00;99.90;;;;;;5096757;28;20529;-68
2021/11/28 01:55:11;;;;;;;17.37;12.03;;;4.00;99.90;;;;;;5096516;28;20484;-68
2021/11/28 01:57:39;;;;;;;16.20;11.63;;;4.00;99.90;;;;;;5096444;28;20476;-67
2021/11/28 02:00:12;;;;;;;17.50;12.50;;;4.00;99.90;;;;;;5095614;28;20453;-68
2021/11/28 02:02:39;;;;;;;15.23;11.90;;;4.10;99.90;;;;;;5096378;28;20667;-68
2021/11/28 02:05:07;;;;;;;16.50;12.50;;;4.10;99.90;;;;;;5096163;28;20454;-68
2021/11/28 02:07:36;;;;;;;16.27;11.80;;;4.20;99.90;;;;;;5096617;28;20523;-68
2021/11/28 02:10:04;;;;;;;15.70;11.83;;;4.20;99.90;;;;;;5096661;28;20773;-68
2021/11/28 02:12:30;;;;;;;15.20;11.40;;;4.20;99.90;;;;;;5096388;28;20465;-68
2021/11/28 02:14:58;;;;;;;14.90;11.43;;;4.20;99.90;;;;;;5096134;28;20977;-68
2021/11/28 02:17:26;;;;;;;14.03;11.07;;;4.20;99.90;;;;;;5095987;28;20457;-68
2021/11/28 02:19:52;;;;;;;14.00;10.37;;;4.20;99.90;;;;;;5096498;28;20481;-68
2021/11/28 02:22:22;;;;;;;16.33;11.80;;;4.20;99.90;;;;;;5096105;28;20481;-68
2021/11/28 02:24:49;;;;;;;14.73;11.70;;;4.10;99.90;;;;;;5096358;28;20773;-69
2021/11/28 02:27:17;;;;;;;16.83;11.80;;;4.10;99.90;;;;;;5096197;28;20523;-69
2021/11/28 02:29:45;;;;;;;15.60;11.93;;;4.00;99.90;;;;;;5096129;28;20461;-69
2021/11/28 02:32:12;;;;;;;15.77;11.80;;;4.00;99.90;;;;;;5095844;28;20832;-69
2021/11/28 02:34:40;;;;;;;14.10;11.20;;;4.00;99.90;;;;;;5095861;28;20513;-68
2021/11/28 02:37:08;;;;;;;17.90;13.03;;;4.10;99.90;;;;;;5095916;28;21007;-69
2021/11/28 02:39:36;;;;;;;15.90;12.13;;;4.10;99.90;;;;;;5096048;28;20508;-69
2021/11/28 02:42:05;;;;;;;15.33;12.10;;;4.10;99.90;;;;;;5096080;28;20489;-69
2021/11/28 02:44:33;;;;;;;13.73;10.23;;;4.20;99.90;;;;;;5095801;28;20802;-69
2021/11/28 02:47:01;;;;;;;16.40;12.33;;;4.20;99.90;;;;;;5096234;28;20454;-69
2021/11/28 02:49:28;;;;;;;14.57;11.20;;;4.20;99.90;;;;;;5095754;28;20518;-68
2021/11/28 02:51:56;;;;;;;14.07;10.30;;;4.20;99.90;;;;;;5095771;28;20461;-68
2021/11/28 02:54:23;;;;;;;14.53;11.50;;;4.20;99.90;;;;;;5095466;28;20831;-69
2021/11/28 02:56:51;;;;;;;14.17;10.60;;;4.20;99.90;;;;;;5095913;28;20977;-68
2021/11/28 02:59:18;;;;;;;15.07;11.43;;;4.10;99.90;;;;;;5095773;28;20458;-68
2021/11/28 03:01:45;;;;;;;14.23;10.80;;;4.20;99.90;;;;;;5095419;28;20496;-68
2021/11/28 03:04:13;;;;;;;16.20;11.03;;;4.20;99.90;;;;;;5095670;28;20553;-68
2021/11/28 03:06:41;;;;;;;13.20;11.03;;;4.20;99.90;;;;;;5095211;28;20492;-69
2021/11/28 03:09:08;;;;;;;17.00;12.03;;;4.20;99.90;;;;;;5095565;28;20503;-68
2021/11/28 03:11:35;;;;;;;13.17;10.57;;;4.30;99.90;;;;;;5094930;28;20525;-69
2021/11/28 03:14:03;;;;;;;14.30;10.90;;;4.20;99.90;;;;;;5095063;28;20540;-68
2021/11/28 03:16:30;;;;;;;15.07;10.77;;;4.20;99.90;;;;;;5095497;28;20457;-68
2021/11/28 03:18:57;;;;;;;15.03;10.50;;;4.20;99.90;;;;;;5095297;28;20518;-68
2021/11/28 03:21:26;;;;;;;14.67;11.33;;;4.20;99.90;;;;;;5095252;28;20489;-68
2021/11/28 03:23:56;;;;;;;17.53;11.97;;;4.20;99.90;;;;;;5094920;28;20485;-68
2021/11/28 03:26:25;;;;;;;15.10;10.60;;;4.20;99.90;;;;;;5095322;28;20526;-68
2021/11/28 03:28:54;;;;;;;13.20;10.87;;;4.20;99.90;;;;;;5094868;28;20564;-68
2021/11/28 03:31:25;;;;;;;14.77;10.73;;;4.20;99.90;;;;;;5094622;28;20490;-68
2021/11/28 03:33:52;;;;;;;10.83;9.67;;;4.30;99.90;;;;;;5095054;28;20827;-69
2021/11/28 03:36:22;;;;;;;15.90;11.73;;;4.30;99.90;;;;;;5094844;28;20514;-69
2021/11/28 03:38:53;;;;;;;13.80;10.80;;;4.20;99.90;;;;;;5095073;28;20838;-68
2021/11/28 03:41:23;;;;;;;14.53;9.93;;;4.20;99.90;;;;;;5094632;28;20952;-68
2021/11/28 03:43:51;;;;;;;12.30;10.13;;;4.20;99.90;;;;;;5094751;28;20523;-68
2021/11/28 03:46:19;;;;;;;12.60;10.67;;;4.20;99.90;;;;;;5094947;28;20457;-68
2021/11/28 03:48:47;;;;;;;13.00;10.60;;;4.20;99.90;;;;;;5094556;28;20519;-68
2021/11/28 03:51:14;;;;;;;11.20;9.67;;;4.20;99.90;;;;;;5094951;28;20465;-67
2021/11/28 03:53:41;;;;;;;14.03;10.80;;;4.20;99.90;;;;;;5094312;28;20533;-67
2021/11/28 03:56:09;;;;;;;12.90;9.83;;;4.20;99.90;;;;;;5094380;28;20521;-68
2021/11/28 03:58:37;;;;;;;14.37;10.83;;;4.10;99.90;;;;;;5094537;28;20551;-68
2021/11/28 04:01:07;;;;;;;14.53;9.50;;;4.10;99.90;;;;;;5094783;28;20467;-68
2021/11/28 04:03:35;;;;;;;14.80;10.50;;;4.10;99.90;;;;;;5094324;28;20461;-69
2021/11/28 04:06:03;;;;;;;15.20;10.60;;;4.10;99.90;;;;;;5094510;28;20529;-69
2021/11/28 04:08:30;;;;;;;11.90;9.83;;;4.10;99.90;;;;;;5094279;28;20455;-69
2021/11/28 04:10:57;;;;;;;10.67;9.33;;;4.00;99.90;;;;;;5094426;28;20463;-69
2021/11/28 04:13:24;;;;;;;10.50;8.70;;;4.10;99.90;;;;;;5094313;28;20464;-68
2021/11/28 04:15:52;;;;;;;15.47;9.67;;;4.00;99.90;;;;;;5094458;28;20515;-69
2021/11/28 04:18:19;;;;;;;12.63;9.30;;;4.00;99.90;;;;;;5094730;28;20465;-70
2021/11/28 04:20:47;;;;;;;12.63;10.00;;;4.00;99.90;;;;;;5094456;28;20461;-68
2021/11/28 04:23:16;;;;;;;14.70;10.20;;;4.00;99.90;;;;;;5096280;28;20481;-68
2021/11/28 04:25:44;;;;;;;13.03;10.20;;;3.90;99.90;;;;;;5099252;28;20472;-68
2021/11/28 04:28:11;;;;;;;12.40;10.27;;;3.80;99.90;;;;;;5098929;28;20575;-68
2021/11/28 04:30:38;;;;;;;13.00;9.67;;;3.70;99.90;;;;;;5098576;28;20888;-68
2021/11/28 04:33:05;;;;;;;16.17;11.03;;;3.60;99.90;;;;;;5098398;28;21012;-68
2021/11/28 04:35:32;;;;;;;13.90;10.87;;;3.60;99.90;;;;;;5098286;28;20491;-67
2021/11/28 04:38:00;;;;;;;14.30;10.43;;;3.60;99.90;;;;;;5098679;28;20460;-68
2021/11/28 04:40:28;;;;;;;14.83;10.57;;;3.60;99.90;;;;;;5098703;28;20551;-68
2021/11/28 04:42:55;;;;;;;14.00;10.53;;;3.60;99.90;;;;;;5098594;28;20486;-68
2021/11/28 04:45:22;;;;;;;14.77;10.20;;;3.50;99.90;;;;;;5097930;28;20459;-68
2021/11/28 04:47:50;;;;;;;13.90;10.00;;;3.50;99.90;;;;;;5098139;28;20492;-67
2021/11/28 04:50:17;;;;;;;14.63;10.77;;;3.40;99.90;;;;;;5097840;28;20481;-67
2021/11/28 04:52:44;;;;;;;15.27;10.80;;;3.40;99.90;;;;;;5097738;28;20456;-69
2021/11/28 04:55:13;;;;;;;14.70;11.60;;;3.40;99.90;;;;;;5097540;28;20477;-68
2021/11/28 04:57:42;;;;;;;15.87;11.70;;;3.30;99.90;;;;;;5098758;28;20819;-68
2021/11/28 05:00:13;;;;;;;14.20;10.77;;;3.20;99.90;;;;;;5097581;28;20523;-68
2021/11/28 05:02:40;;;;;;;14.10;10.80;;;3.10;99.90;;;;;;5098160;28;20501;-68
2021/11/28 05:05:08;;;;;;;15.70;11.70;;;3.10;99.90;;;;;;5097947;28;20521;-68
2021/11/28 05:07:35;;;;;;;16.23;11.80;;;3.00;99.90;;;;;;5097490;28;20626;-68
2021/11/28 05:10:02;;;;;;;19.73;11.57;;;2.90;99.90;;;;;;5097850;28;20520;-68
2021/11/28 05:12:29;;;;;;;17.17;12.20;;;2.90;99.90;;;;;;5097836;28;20508;-68
2021/11/28 05:14:58;;;;;;;15.33;11.93;;;2.90;99.90;;;;;;5098623;28;20816;-68
2021/11/28 05:17:25;;;;;;;16.00;11.73;;;2.90;99.90;;;;;;5097558;28;20525;-68
2021/11/28 05:19:52;;;;;;;15.63;12.80;;;2.80;99.90;;;;;;5097936;28;20488;-68
2021/11/28 05:22:19;;;;;;;16.10;11.73;;;2.80;99.90;;;;;;5096838;28;20540;-68
2021/11/28 05:24:50;;;;;;;15.87;11.23;;;2.70;99.90;;;;;;5097262;28;20442;-68
2021/11/28 05:27:17;;;;;;;14.73;11.70;;;2.70;99.90;;;;;;5097439;28;20536;-69
2021/11/28 05:29:45;;;;;;;14.47;11.77;;;2.70;99.90;;;;;;5097243;28;20457;-68
2021/11/28 05:32:15;;;;;;;14.50;10.90;;;2.70;99.90;;;;;;5097106;28;20458;-68
2021/11/28 05:34:43;;;;;;;16.37;11.80;;;2.70;99.90;;;;;;5096546;28;20489;-68
2021/11/28 05:37:11;;;;;;;14.43;11.63;;;2.60;99.90;;;;;;5097251;28;20468;-68
2021/11/28 05:39:38;;;;;;;18.33;12.53;;;2.60;99.90;;;;;;5097447;28;20471;-68
2021/11/28 05:42:05;;;;;;;19.30;12.20;;;2.50;99.90;;;;;;5096744;28;20527;-68
2021/11/28 05:44:32;;;;;;;16.90;11.63;;;2.50;99.90;;;;;;5097424;28;20486;-68
2021/11/28 05:46:59;;;;;;;15.20;11.57;;;2.50;99.90;;;;;;5097989;28;20521;-69
2021/11/28 05:49:28;;;;;;;18.93;12.33;;;2.50;99.90;;;;;;5098318;28;20459;-68
2021/11/28 05:51:55;;;;;;;17.43;12.97;;;2.50;99.90;;;;;;5098416;28;20466;-69
2021/11/28 05:54:22;;;;;;;18.70;11.63;;;2.50;99.90;;;;;;5097928;28;20510;-68
2021/11/28 05:56:49;;;;;;;16.80;12.23;;;2.50;99.90;;;;;;5096790;28;20482;-68
2021/11/28 05:59:19;;;;;;;17.70;11.67;;;2.40;99.90;;;;;;5097017;28;20460;-68
2021/11/28 06:01:48;;;;;;;20.13;13.20;;;2.30;99.90;;;;;;5096744;28;20817;-68
2021/11/28 06:04:15;;;;;;;20.20;12.73;;;2.30;99.90;;;;;;5096665;28;20509;-69
2021/11/28 06:06:43;;;;;;;21.43;13.40;;;2.20;99.90;;;;;;5096326;28;20493;-68
2021/11/28 06:09:10;;;;;;;19.97;13.03;;;2.10;99.90;;;;;;5096403;28;20484;-69
2021/11/28 06:11:37;;;;;;;21.23;13.90;;;2.10;99.90;;;;;;5096207;28;20456;-68
2021/11/28 06:14:05;;;;;;;20.20;12.80;;;2.10;99.90;;;;;;5096406;28;20460;-68
2021/11/28 06:16:32;;;;;;;19.07;13.60;;;2.10;99.90;;;;;;5096129;28;20519;-69
2021/11/28 06:18:59;;;;;;;20.53;13.83;;;2.10;99.90;;;;;;5096021;28;20469;-68
2021/11/28 06:21:26;;;;;;;17.37;12.87;;;2.10;99.90;;;;;;5096416;28;20567;-69
2021/11/28 06:23:54;;;;;;;20.97;13.07;;;2.10;99.90;;;;;;5096106;28;20566;-68
2021/11/28 06:26:21;;;;;;;17.97;12.70;;;2.10;99.90;;;;;;5096077;28;20451;-68
2021/11/28 06:28:48;;;;;;;20.60;13.27;;;2.10;99.90;;;;;;5096576;28;20494;-68
2021/11/28 06:31:15;;;;;;;17.23;13.17;;;2.10;99.90;;;;;;5097213;28;20488;-68
2021/11/28 06:33:42;;;;;;;22.33;14.03;;;2.10;99.90;;;;;;5095997;28;20563;-68
2021/11/28 06:36:10;;;;;;;22.07;13.57;;;2.10;99.90;;;;;;5095816;28;20545;-68
2021/11/28 06:38:37;;;;;;;23.97;13.97;;;2.10;99.90;;;;;;5096564;28;20504;-68
2021/11/28 06:41:07;;;;;;;22.33;13.97;;;2.00;99.90;;;;;;5096312;28;20456;-68
2021/11/28 06:43:33;;;;;;;18.97;12.97;;;2.00;99.90;;;;;;5095916;28;21058;-69
2021/11/28 06:46:01;;;;;;;23.20;14.63;;;2.00;99.90;;;;;;5095348;28;20543;-68
2021/11/28 06:48:28;;;;;;;21.60;14.40;;;2.00;99.90;;;;;;5096056;28;20543;-69
2021/11/28 06:50:56;;;;;;;21.20;13.50;;;2.10;99.90;;;;;;5095452;28;20941;-68
2021/11/28 06:53:23;;;;;;;18.20;12.67;;;2.10;99.90;;;;;;5095759;28;20458;-68
2021/11/28 06:55:50;;;;;;;18.97;12.80;;;2.00;99.90;;;;;;5095202;28;20510;-67
2021/11/28 06:58:20;;;;;;;18.60;12.83;;;1.90;99.90;;;;;;5095844;28;20537;-69
2021/11/28 07:00:47;;;;;;;18.90;13.50;;;1.80;99.90;;;;;;5095451;28;20518;-68
2021/11/28 07:03:14;;;;;;;16.40;12.40;;;1.80;99.90;;;;;;5095140;28;20460;-68
2021/11/28 07:05:43;;;;;;;18.73;13.37;;;1.80;99.90;;;;;;5095297;28;20514;-68
2021/11/28 07:08:10;;;;;;;20.70;13.50;;;1.80;99.90;;;;;;5095710;28;20459;-68
2021/11/28 07:10:39;;;;;;;19.10;12.87;;;1.70;99.90;;;;;;5095694;28;20459;-69
2021/11/28 07:13:06;;;;;;;23.27;14.07;;;1.70;99.90;;;;;;5095774;28;20844;-68
2021/11/28 07:15:35;;;;;;;16.83;12.20;;;1.70;99.90;;;;;;5095285;28;20480;-68
2021/11/28 07:18:03;;;;;;;18.80;13.37;;;1.70;99.90;;;;;;5095393;28;20468;-68
2021/11/28 07:20:30;;;;;;;22.00;13.20;;;1.70;99.90;;;;;;5095013;28;20497;-69
2021/11/28 07:22:58;;;;;;;23.60;13.23;;;1.70;99.90;;;;;;5095125;28;20490;-69
2021/11/28 07:25:26;;;;;;;18.03;12.50;;;1.70;99.90;;;;;;5094930;28;20456;-69
2021/11/28 07:27:55;;;;;;;20.20;13.57;;;1.80;99.90;;;;;;5094987;28;20456;-69
2021/11/28 07:30:23;;;;;;;18.63;12.60;;;1.80;99.90;;;;;;5094934;28;20787;-69
2021/11/28 07:32:52;;;;;;;20.27;13.30;;;1.70;99.90;;;;;;5095209;28;20583;-69
2021/11/28 07:35:19;;;;;;;21.77;13.73;;;1.70;99.90;;;;;;5094796;28;20452;-69
2021/11/28 07:37:46;;;;;;;17.73;12.73;;;1.80;99.90;;;;;;5095024;28;20525;-69
2021/11/28 07:40:14;;;;;;;19.27;12.53;;;1.70;99.90;;;;;;5095063;28;20454;-68
2021/11/28 07:42:41;;;;;;;17.23;12.47;;;1.70;99.90;;;;;;5094881;28;20774;-68
2021/11/28 07:45:10;;;;;;;20.70;14.30;;;1.80;99.90;;;;;;5094931;28;20457;-68
2021/11/28 07:47:38;;;;;;;21.20;13.47;;;1.80;99.90;;;;;;5094922;28;20788;-69
2021/11/28 07:50:10;;;;;;;17.33;12.80;;;1.80;99.90;;;;;;5095176;28;20557;-69
2021/11/28 07:52:37;;;;;;;18.60;12.90;;;1.90;99.90;;;;;;5095650;28;20445;-69
2021/11/28 07:55:05;;;;;;;18.37;12.73;;;1.90;99.90;;;;;;5094890;28;20491;-69
2021/11/28 07:57:32;;;;;;;17.67;12.17;;;2.00;99.90;;;;;;5095092;28;20482;-69
2021/11/28 07:59:59;;;;;;;19.10;12.50;;;2.00;99.90;;;;;;5094317;28;20463;-68
2021/11/28 08:02:26;;;;;;;15.80;11.83;;;2.00;99.90;;;;;;5094624;28;20454;-69
2021/11/28 08:04:53;;;;;;;19.43;12.13;;;2.10;99.90;;;;;;5094937;28;20460;-69
2021/11/28 08:07:22;;;;;;;18.30;12.17;;;2.10;99.90;;;;;;5096370;28;20451;-68
2021/11/28 08:09:49;;;;;;;15.13;10.70;;;2.10;99.90;;;;;;5096970;28;20457;-68
2021/11/28 08:12:16;;;;;;;17.07;11.50;;;2.10;99.90;;;;;;5096011;28;20540;-69
2021/11/28 08:14:43;;;;;;;18.10;11.33;;;2.20;99.90;;;;;;5096928;28;20520;-69
2021/11/28 08:17:13;;;;;;;17.33;10.80;;;2.20;99.90;;;;;;5095642;28;20554;-68
2021/11/28 08:19:41;;;;;;;24.07;11.77;;;2.10;99.90;;;;;;5094447;28;20507;-68
2021/11/28 08:22:08;;;;;;;17.33;11.33;;;2.10;99.90;;;;;;5094705;28;21712;-69
2021/11/28 08:24:36;;;;;;;16.63;11.33;;;2.10;99.90;;;;;;5094481;28;20464;-69
2021/11/28 08:27:04;;;;;;;18.67;11.53;;;2.20;99.90;;;;;;5094419;28;20465;-68
2021/11/28 08:29:31;;;;;;;15.00;11.17;;;2.30;99.90;;;;;;5094122;28;20460;-69
2021/11/28 08:31:58;;;;;;;16.90;12.70;;;2.20;99.90;;;;;;5095553;28;20457;-69
2021/11/28 08:34:27;;;;;;;15.27;11.47;;;2.20;99.90;;;;;;5095841;28;20912;-69
2021/11/28 08:36:56;;;;;;;16.50;10.83;;;2.20;99.90;;;;;;5094136;28;20491;-68
2021/11/28 08:39:23;;;;;;;17.50;12.20;;;2.20;99.90;;;;;;5094366;28;20805;-69
2021/11/28 08:41:51;;;;;;;16.70;12.37;;;2.20;99.90;;;;;;5094509;28;20513;-69
2021/11/28 08:44:20;;;;;;;19.03;13.43;;;2.20;99.90;;;;;;5094375;28;20546;-69
2021/11/28 08:46:47;;;;;;;19.60;11.33;;;2.10;99.90;;;;;;5094007;28;20466;-68
2021/11/28 08:49:14;;;;;;;17.07;12.57;;;2.10;99.90;;;;;;5094144;28;20507;-68
2021/11/28 08:51:41;;;;;;;15.50;11.27;;;2.10;99.90;;;;;;5094021;28;20461;-70
2021/11/28 08:54:13;;;;;;;20.40;11.90;;;2.20;99.90;;;;;;5093913;28;20457;-68
2021/11/28 08:56:40;;;;;;;18.00;11.10;;;2.30;99.90;;;;;;5094278;28;20625;-69
2021/11/28 08:59:09;;;;;;;12.23;10.10;;;2.30;99.90;;;;;;5094044;28;20459;-69
2021/11/28 09:01:37;;;;;;;15.27;10.90;;;2.40;99.90;;;;;;5093855;28;20928;-68
2021/11/28 09:04:04;;;;;;;20.17;11.53;;;2.50;99.90;;;;;;5094165;28;20842;-67
2021/11/28 09:06:31;;;;;;;16.70;11.43;;;2.60;99.90;;;;;;5093663;28;20865;-69
2021/11/28 09:08:58;;;;;;;18.67;10.47;;;2.60;99.90;;;;;;5095615;28;20522;-68
2021/11/28 09:11:25;;;;;;;13.70;10.80;;;2.70;99.90;;;;;;5097877;28;20458;-69
2021/11/28 09:13:52;;;;;;;16.33;10.67;;;2.70;99.90;;;;;;5097231;28;20500;-69
2021/11/28 09:16:21;;;;;;;14.93;10.13;;;2.70;99.90;;;;;;5097110;28;20554;-68
2021/11/28 09:18:50;;;;;;;13.90;8.90;;;2.70;99.90;;;;;;5097256;28;20857;-69
2021/11/28 09:21:17;;;;;;;13.40;9.70;;;2.80;99.90;;;;;;5097614;28;20499;-69
2021/11/28 09:26:31;;;;;;;15.43;9.03;;;2.90;99.90;;;;;;5097495;28;20452;-69
2021/11/28 09:29:01;;;;;;;13.10;8.80;;;2.90;99.90;;;;;;5097299;28;20446;-69
2021/11/28 09:31:30;;;;;;;12.33;8.93;;;3.00;99.90;;;;;;5096831;28;20461;-69
2021/11/28 09:33:58;;;;;;;12.50;9.80;;;3.00;99.90;;;;;;5097075;28;20455;-68
2021/11/28 09:36:26;;;;;;;13.43;8.27;;;3.10;99.90;;;;;;5097054;28;20478;-69
2021/11/28 09:38:53;;;;;;;15.97;9.30;;;3.20;99.90;;;;;;5096839;28;20666;-69
2021/11/28 09:41:20;;;;;;;14.70;8.23;;;3.30;99.90;;;;;;5097110;28;20463;-69
2021/11/28 09:43:53;;;;;;;13.83;9.30;;;3.30;99.90;;;;;;5096524;28;20492;-69
2021/11/28 09:46:24;;;;;;;11.17;8.90;;;3.40;99.90;;;;;;5097122;28;20517;-68
2021/11/28 09:48:57;;;;;;;15.03;8.53;;;3.40;99.90;;;;;;5096797;28;20448;-68
2021/11/28 09:51:27;;;;;;;15.27;8.93;;;3.50;99.90;;;;;;5096514;28;20497;-69
2021/11/28 09:53:55;;;;;;;15.20;9.37;;;3.60;99.90;;;;;;5096905;28;20489;-69
2021/11/28 09:56:22;;;;;;;11.03;8.00;;;3.60;99.90;;;;;;5096687;28;20482;-70
2021/11/28 09:58:49;;;;;;;13.80;8.33;;;3.60;99.90;;;;;;5096015;28;20504;-69
2021/11/28 10:01:20;;;;;;;13.80;8.10;;;3.60;99.90;;;;;;5096249;28;20463;-69
2021/11/28 10:03:48;;;;;;;16.70;9.37;;;3.70;99.90;;;;;;5096363;28;20913;-68
2021/11/28 10:06:16;;;;;;;13.50;8.90;;;3.70;99.90;;;;;;5096123;28;20520;-67
2021/11/28 10:08:46;;;;;;;12.60;8.50;;;3.70;99.90;;;;;;5096052;28;20460;-69
2021/11/28 10:11:54;;;;;;;16.60;8.73;;;3.80;99.90;;;;;;5096311;28;20525;-70
2021/11/28 10:14:21;;;;;;;14.23;8.50;;;3.80;99.90;;;;;;5096361;28;20506;-68
2021/11/28 10:16:48;;;;;;;10.33;8.53;;;3.90;99.90;;;;;;5096320;28;20800;-69
2021/11/28 10:19:17;;;;;;;11.20;8.73;;;4.00;99.90;;;;;;5095854;28;20492;-69
2021/11/28 10:21:46;;;;;;;10.60;8.40;;;4.00;99.90;;;;;;5095026;28;20464;-69
2021/11/28 10:24:14;;;;;;;15.10;9.97;;;4.00;99.90;;;;;;5095649;28;20459;-69
2021/11/28 10:26:55;;;;;;;13.93;9.30;;;4.00;99.90;;;;;;5096004;28;20456;-70
2021/11/28 10:29:27;;;;;;;13.47;9.37;;;4.10;99.90;;;;;;5096031;28;20954;-70
2021/11/28 10:31:57;;;;;;;14.60;10.03;;;4.20;99.90;;;;;;5096011;28;20773;-69
2021/11/28 10:34:26;;;;;;;17.03;10.30;;;4.20;99.90;;;;;;5096076;28;20523;-69
2021/11/28 10:37:04;;;;;;;11.60;9.50;;;4.10;99.90;;;;;;5095285;28;21038;-70
2021/11/28 10:39:38;;;;;;;13.40;9.50;;;4.10;99.90;;;;;;5095819;28;20557;-68
2021/11/28 10:42:05;;;;;;;14.50;9.73;;;4.20;99.90;;;;;;5095883;28;20775;-68
2021/11/28 10:44:33;;;;;;;15.60;9.30;;;4.30;99.90;;;;;;5095436;28;20467;-72
2021/11/28 10:47:09;;;;;;;16.37;9.07;;;4.30;99.90;;;;;;5095950;28;20780;-70
2021/11/28 10:49:39;;;;;;;14.70;10.00;;;4.40;99.90;;;;;;5096083;28;20447;-71
2021/11/28 10:52:14;;;;;;;17.00;9.57;;;4.50;99.90;;;;;;5095052;28;20457;-70
2021/11/28 10:54:44;;;;;;;11.50;8.80;;;4.60;99.90;;;;;;5095526;28;20893;-70
2021/11/28 10:57:20;;;;;;;12.90;8.57;;;4.60;99.90;;;;;;5095542;28;20944;-71
2021/11/28 10:59:57;;;;;;;13.50;9.20;;;4.70;99.90;;;;;;5095275;28;20873;-70
2021/11/28 11:02:27;;;;;;;14.23;9.47;;;4.70;99.90;;;;;;5095325;28;20470;-69
2021/11/28 11:04:56;;;;;;;11.93;9.17;;;4.70;99.90;;;;;;5095618;28;20744;-69
2021/11/28 11:07:26;;;;;;;13.10;9.17;;;4.80;99.90;;;;;;5095238;28;20462;-68
2021/11/28 11:09:56;;;;;;;17.80;9.40;;;4.90;99.90;;;;;;5095340;28;20507;-69
2021/11/28 11:12:28;;;;;;;10.37;8.63;;;4.90;99.90;;;;;;5095265;28;20442;-69
2021/11/28 11:14:58;;;;;;;12.57;9.00;;;4.90;99.90;;;;;;5095405;28;20467;-69
2021/11/28 11:17:28;;;;;;;12.73;8.60;;;5.00;99.90;;;;;;5095359;28;20876;-68
2021/11/28 11:19:56;;;;;;;13.83;8.90;;;5.00;99.90;;;;;;5095727;28;20460;-69
2021/11/28 11:22:26;;;;;;;13.07;9.40;;;5.10;99.90;;;;;;5095499;28;20821;-69
2021/11/28 11:24:58;;;;;;;15.13;8.50;;;5.10;99.90;;;;;;5095628;28;20573;-68
2021/11/28 11:27:27;;;;;;;13.97;8.53;;;5.10;99.90;;;;;;5095318;28;20476;-69
2021/11/28 11:29:57;;;;;;;11.33;8.63;;;5.10;99.90;;;;;;5095826;28;20829;-68
2021/11/28 11:32:39;;;;;;;11.53;7.50;;;5.20;99.90;;;;;;5095046;28;20462;-69
2021/11/28 11:35:09;;;;;;;10.47;6.50;;;5.20;99.90;;;;;;5094799;28;20434;-69
2021/11/28 11:37:38;;;;;;;8.00;6.63;;;5.30;99.90;;;;;;5094847;28;20478;-68
2021/11/28 11:40:10;;;;;;;10.30;7.13;;;5.30;99.90;;;;;;5094506;28;20500;-68
2021/11/28 11:42:38;;;;;;;12.17;7.40;;;5.30;99.90;;;;;;5094811;28;20454;-67
2021/11/28 11:45:07;;;;;;;14.20;7.70;;;5.40;99.90;;;;;;5094242;28;20470;-70
2021/11/28 11:47:34;;;;;;;18.30;7.50;;;5.50;99.90;;;;;;5094528;28;20454;-68
2021/11/28 11:50:01;;;;;;;14.50;8.40;;;5.50;99.90;;;;;;5094488;28;20514;-67
2021/11/28 11:52:28;;;;;;;11.60;7.07;;;5.60;99.90;;;;;;5094907;28;20479;-69
2021/11/28 11:55:00;;;;;;;12.90;6.93;;;5.90;99.90;;;;;;5095405;28;20524;-68
2021/11/28 11:57:33;;;;;;;9.27;6.50;;;6.60;99.90;;;;;;5094974;28;20467;-68
2021/11/28 12:00:19;;;;;;;12.07;7.00;;;7.60;99.90;;;;;;5094932;28;20453;-68
2021/11/28 12:02:48;;;;;;;13.13;5.33;;;8.60;99.90;;;;;;5094579;28;20436;-68
2021/11/28 12:05:31;;;;;;;7.97;5.70;;;9.60;99.90;;;;;;5094686;28;20803;-68
2021/11/28 12:07:59;;;;;;;14.17;5.70;;;10.60;99.90;;;;;;5094865;28;20444;-68
2021/11/28 12:10:29;;;;;;;9.03;5.70;;;11.60;99.90;;;;;;5094809;28;20460;-71
2021/11/28 12:12:56;;;;;;;7.20;5.60;;;12.40;99.90;;;;;;5095458;28;20919;-70
2021/11/28 12:15:28;;;;;;;11.13;6.53;;;12.80;99.90;;;;;;5094507;28;20453;-70
2021/11/28 12:17:57;;;;;;;9.17;5.27;;;13.10;99.90;;;;;;5094260;28;20535;-69
2021/11/28 12:21:01;;;;;;;9.70;5.80;;;13.60;99.90;;;;;;5094221;28;20476;-70
2021/11/28 12:23:59;;;;;;;7.93;5.70;;;13.70;99.90;;;;;;5093740;28;20809;-70
2021/11/28 12:26:56;;;;;;;6.63;4.67;;;14.00;99.90;;;;;;5093908;28;20450;-71
2021/11/28 12:29:28;;;;;;;10.80;4.93;;;14.30;99.90;;;;;;5091401;28;20826;-71
2021/11/28 12:31:56;;;;;;;9.17;5.27;;;14.30;99.90;;;;;;5093487;28;20511;-70
2021/11/28 12:34:25;;;;;;;10.27;6.07;;;14.10;1.00;;;;;;5094569;28;20525;-70
2021/11/28 12:36:55;;;;;;;8.87;5.10;;;14.10;1.00;;;;;;5094447;28;20461;-69
2021/11/28 12:39:39;;;;;;;7.30;5.60;;;13.90;1.00;;;;;;5094813;28;20993;-70
2021/11/28 12:42:10;;;;;;;7.03;6.17;;;14.00;99.90;;;;;;5094021;28;20465;-71
2021/11/28 12:44:39;;;;;;;14.00;5.97;;;13.60;1.00;;;;;;5096950;28;20536;-70
2021/11/28 12:47:21;;;;;;;11.00;6.00;;;13.60;99.90;;;;;;5098284;28;20456;-71
2021/11/28 12:49:51;;;;;;;7.30;5.23;;;13.70;1.00;;;;;;5098164;28;20457;-71
2021/11/28 12:52:44;;;;;;;8.03;5.37;;;13.60;1.00;;;;;;5098374;28;20467;-69
2021/11/28 12:55:18;;;;;;;9.60;5.63;;;13.90;1.00;;;;;;5098127;28;20448;-70